createdAt,value
2019-03-29T00:02:42.894Z,2.71
2019-03-29T00:08:37.229Z,3.13
2019-03-29T00:14:32.252Z,2.79
2019-03-29T00:20:27.228Z,2.5
2019-03-29T00:26:22.222Z,2.82
2019-03-29T00:32:17.230Z,2.75
2019-03-29T00:38:12.236Z,2.73
2019-03-29T00:44:07.292Z,2.74
2019-03-29T00:50:02.255Z,2.64
2019-03-29T00:55:57.247Z,2.7
2019-03-29T01:01:52.951Z,2.89
2019-03-29T01:07:47.267Z,2.35
2019-03-29T01:13:42.252Z,2.75
2019-03-29T01:19:37.306Z,2.55
2019-03-29T01:25:32.279Z,2.71
2019-03-29T01:31:27.270Z,2.3
2019-03-29T01:37:22.276Z,2.17
2019-03-29T01:43:17.288Z,2.01
2019-03-29T01:49:12.277Z,2.34
2019-03-29T01:55:07.282Z,2.13
2019-03-29T02:01:03.021Z,2.09
2019-03-29T02:06:57.313Z,2.16
2019-03-29T02:12:52.292Z,2.38
2019-03-29T02:18:47.281Z,2.02
2019-03-29T02:24:42.274Z,2.06
2019-03-29T02:30:37.323Z,2.28
2019-03-29T02:36:32.412Z,1.98
2019-03-29T02:42:27.299Z,2.33
2019-03-29T02:48:22.385Z,2.38
2019-03-29T02:54:17.303Z,2.06
2019-03-29T03:00:12.350Z,2.44
2019-03-29T03:06:07.329Z,2.22
2019-03-29T03:12:02.351Z,2.29
2019-03-29T03:17:57.346Z,2.07
2019-03-29T03:23:52.328Z,1.94
2019-03-29T03:29:48.273Z,2.14
2019-03-29T03:35:42.364Z,2.15
2019-03-29T03:41:37.314Z,2.38
2019-03-29T03:47:32.368Z,2.43
2019-03-29T03:53:27.339Z,2.43
2019-03-29T03:59:22.355Z,2.59
2019-03-29T04:05:17.344Z,2.44
2019-03-29T04:11:12.366Z,2.85
2019-03-29T04:17:07.390Z,2.73
2019-03-29T04:23:02.347Z,2.65
2019-03-29T04:29:04.512Z,2.23
2019-03-29T04:34:52.361Z,2.72
2019-03-29T04:40:47.349Z,2.49
2019-03-29T04:46:42.361Z,2.36
2019-03-29T04:52:37.380Z,2.52
2019-03-29T04:58:32.363Z,2.65
2019-03-29T05:04:27.397Z,2.63
2019-03-29T05:10:22.394Z,2.47
2019-03-29T05:16:17.388Z,2.73
2019-03-29T05:22:12.387Z,2.54
2019-03-29T05:28:07.400Z,2.28
2019-03-29T05:34:02.418Z,2.73
2019-03-29T05:39:57.391Z,2.62
2019-03-29T05:45:52.417Z,2.85
2019-03-29T05:51:47.385Z,2.75
2019-03-29T05:57:42.402Z,2.31
2019-03-29T06:03:37.433Z,2.89
2019-03-29T06:09:34.926Z,2.98
2019-03-29T06:15:27.428Z,2.64
2019-03-29T06:21:22.509Z,3.18
2019-03-29T06:27:17.428Z,3.36
2019-03-29T06:33:12.424Z,3
2019-03-29T06:39:07.424Z,3.43
2019-03-29T06:45:02.443Z,3.36
2019-03-29T06:50:57.472Z,3.7
2019-03-29T06:56:52.479Z,3.41
2019-03-29T07:02:47.421Z,3.32
2019-03-29T07:08:42.442Z,3
2019-03-29T07:14:37.481Z,4.02
2019-03-29T07:20:32.449Z,4.24
2019-03-29T07:26:27.439Z,3.72
2019-03-29T07:32:22.475Z,4.23
2019-03-29T07:38:17.485Z,4.26
2019-03-29T07:44:12.474Z,4.42
2019-03-29T07:50:07.488Z,4.43
2019-03-29T07:56:02.473Z,4.48
2019-03-29T08:01:57.467Z,4.75
2019-03-29T08:07:52.481Z,3.9
2019-03-29T08:13:47.461Z,4
2019-03-29T08:19:42.466Z,3.89
2019-03-29T08:25:37.473Z,4.16
2019-03-29T08:31:32.473Z,4.35
2019-03-29T08:37:27.488Z,4.91
2019-03-29T08:43:22.498Z,4.26
2019-03-29T08:49:17.491Z,4.65
2019-03-29T08:55:12.483Z,4.46
2019-03-29T09:01:07.512Z,4.48
2019-03-29T09:07:02.501Z,5.37
2019-03-29T09:12:57.521Z,4.27
2019-03-29T09:18:52.490Z,4.51
2019-03-29T09:24:47.490Z,3.97
2019-03-29T09:30:42.504Z,4.56
2019-03-29T09:36:37.526Z,4.61
2019-03-29T09:42:32.510Z,4.08
2019-03-29T09:48:27.564Z,4.38
2019-03-29T09:54:22.570Z,4.09
2019-03-29T10:00:22.537Z,4.16
2019-03-29T10:06:15.244Z,3.87
2019-03-29T10:12:07.538Z,3.7
2019-03-29T10:18:02.553Z,3.57
2019-03-29T10:23:57.554Z,4.33
2019-03-29T10:29:52.560Z,3.83
2019-03-29T10:35:51.836Z,4.34
2019-03-29T10:41:42.555Z,3.51
2019-03-29T10:47:43.427Z,3.72
2019-03-29T10:53:32.594Z,3.26
2019-03-29T10:59:28.057Z,2.72
2019-03-29T11:05:22.588Z,4.33
2019-03-29T11:11:17.561Z,3.69
2019-03-29T11:17:12.597Z,3.48
2019-03-29T11:23:07.561Z,3.73
2019-03-29T11:29:02.580Z,3.43
2019-03-29T11:34:57.591Z,3.43
2019-03-29T11:40:52.591Z,3.26
2019-03-29T11:46:47.574Z,3.56
2019-03-29T11:52:42.591Z,3.06
2019-03-29T11:58:37.606Z,3.54
2019-03-29T12:04:32.618Z,3.86
2019-03-29T12:10:27.618Z,3.57
2019-03-29T12:16:22.621Z,4.32
2019-03-29T12:22:17.627Z,3.09
2019-03-29T12:28:12.602Z,5.01
2019-03-29T12:34:07.623Z,5.58
2019-03-29T12:40:02.674Z,7.76
2019-03-29T12:45:57.627Z,8.02
2019-03-29T12:51:52.625Z,10.56
2019-03-29T12:57:47.636Z,7.4
2019-03-29T13:03:42.632Z,10.54
2019-03-29T13:09:39.718Z,6.53
2019-03-29T13:15:32.637Z,7.02
2019-03-29T13:21:27.616Z,6.18
2019-03-29T13:27:22.636Z,6.04
2019-03-29T13:33:20.329Z,5.51
2019-03-29T13:39:12.653Z,6.76
2019-03-29T13:45:07.667Z,7.06
2019-03-29T13:51:02.654Z,8.59
2019-03-29T13:56:57.653Z,4.47
2019-03-29T14:02:52.677Z,7.78
2019-03-29T14:08:47.653Z,6.34
2019-03-29T14:14:42.683Z,7.13
2019-03-29T14:20:37.676Z,5.91
2019-03-29T14:26:32.656Z,5.28
2019-03-29T14:32:27.693Z,5.55
2019-03-29T14:38:22.670Z,5.94
2019-03-29T14:44:17.681Z,5.87
2019-03-29T14:50:12.699Z,5.42
2019-03-29T14:56:07.680Z,7.59
2019-03-29T15:02:02.808Z,4.98
2019-03-29T15:07:57.699Z,6.23
2019-03-29T15:13:52.734Z,6.32
2019-03-29T15:19:47.734Z,6.36
2019-03-29T15:25:42.716Z,4.54
2019-03-29T15:31:37.746Z,4.43
2019-03-29T15:37:32.709Z,5.19
2019-03-29T15:43:27.744Z,5.48
2019-03-29T15:49:22.710Z,4.52
2019-03-29T15:55:17.718Z,4.91
2019-03-29T16:01:12.727Z,4.92
2019-03-29T16:07:07.723Z,4.51
2019-03-29T16:13:02.737Z,5.21
2019-03-29T16:18:57.756Z,4.42
2019-03-29T16:24:52.803Z,5.5
2019-03-29T16:30:47.749Z,4.98
2019-03-29T16:36:42.806Z,4.68
2019-03-29T16:42:37.746Z,4.18
2019-03-29T16:48:32.746Z,4.34
2019-03-29T16:54:27.766Z,4.32
2019-03-29T17:00:22.768Z,2.26
2019-03-29T17:06:17.769Z,4
2019-03-29T17:12:12.759Z,3.75
2019-03-29T17:18:07.798Z,4.02
2019-03-29T17:24:02.768Z,3.2
2019-03-29T17:29:57.776Z,4.05
2019-03-29T17:35:52.791Z,3.46
2019-03-29T17:41:47.798Z,4.62
2019-03-29T17:47:42.790Z,3.7
2019-03-29T17:53:37.796Z,5.19
2019-03-29T17:59:32.787Z,3.54
2019-03-29T18:05:27.791Z,3.38
2019-03-29T18:11:22.815Z,3.3
2019-03-29T18:17:17.807Z,4.09
2019-03-29T18:23:12.799Z,4.14
2019-03-29T18:29:07.844Z,4.92
2019-03-29T18:35:02.823Z,3.99
2019-03-29T18:40:57.876Z,4.15
2019-03-29T18:46:52.856Z,4.64
2019-03-29T18:52:48.175Z,4.7
2019-03-29T18:58:42.821Z,10.75
2019-03-29T19:04:37.852Z,6.87
2019-03-29T19:10:32.847Z,4.71
2019-03-29T19:16:27.836Z,5.01
2019-03-29T19:22:22.890Z,4.58
2019-03-29T19:28:17.816Z,3.94
2019-03-29T19:34:12.840Z,4.38
2019-03-29T19:40:07.850Z,5.17
2019-03-29T19:46:02.824Z,6.6
2019-03-29T19:51:57.949Z,5.45
2019-03-29T19:57:52.976Z,5.2
2019-03-29T20:03:47.866Z,5.34
2019-03-29T20:09:42.934Z,5.09
2019-03-29T20:15:37.899Z,5.07
2019-03-29T20:21:32.874Z,10.17
2019-03-29T20:27:27.866Z,6.65
2019-03-29T20:33:22.873Z,4.44
2019-03-29T20:39:17.886Z,4.24
2019-03-29T20:45:12.874Z,5.89
2019-03-29T20:51:07.903Z,5.77
2019-03-29T20:57:02.902Z,4.85
2019-03-29T21:02:57.896Z,7.71
2019-03-29T21:08:52.915Z,9.25
2019-03-29T21:14:47.902Z,5.75
2019-03-29T21:20:42.882Z,5.35
2019-03-29T21:26:37.915Z,4.39
2019-03-29T21:32:32.971Z,17.82
2019-03-29T21:38:27.945Z,9.36
2019-03-29T21:44:22.925Z,11.31
2019-03-29T21:50:17.940Z,14.74
2019-03-29T21:56:12.911Z,7.39
2019-03-29T22:02:07.949Z,27.9
2019-03-29T22:08:02.927Z,14.62
2019-03-29T22:13:57.934Z,4.71
2019-03-29T22:19:52.939Z,8.23
2019-03-29T22:25:47.926Z,3.86
2019-03-29T22:31:42.942Z,4.12
2019-03-29T22:37:37.957Z,6.41
2019-03-29T22:43:32.992Z,5.64
2019-03-29T22:49:27.934Z,5.5
2019-03-29T22:55:22.968Z,3.67
2019-03-29T23:01:17.958Z,5.7
2019-03-29T23:07:12.953Z,4.65
2019-03-29T23:13:07.963Z,3.53
2019-03-29T23:19:06.568Z,4.39
2019-03-29T23:24:57.970Z,3.17
2019-03-29T23:30:52.984Z,3.32
2019-03-29T23:36:47.962Z,3.48
2019-03-29T23:42:43.005Z,3.54
2019-03-29T23:48:37.976Z,5.23
2019-03-29T23:54:32.965Z,4.71
